• Join FlightAware (Why Join?)
  • Login
  • US Flag 
05:53AM EDT


 

Airport Tracker/Info


-or-


 

Live Flight TrackerFlight Track Log ✈ AWE3417 ✈ 05-Feb-2014 ✈ KALB - KDCA

Flight Track Log - Related Links

Times and Time Zones

All times are in EST time to prevent confusion due to time zone crossing. See the AWE3417 flight status page for this flight to view local times or setup timezone preferences in your user account.

Time Position Orientation Groundspeed Altitude Reporting Facility
EST Latitude Longitude Course Direction KTS MPH feet Rate Location/Type
06:09PM 42.7681 -73.8058 118° Southeast 139 160 1,700  Level Boston Center
06:10PM 42.7989 -73.8250 335° Northwest 200 230 2,600 2,040 Climbing Boston Center
06:10PM 42.8158 -73.8564 306° West 219 252 4,100 3,960 Climbing Boston Center
06:11PM 42.8597 -73.9350 307° West 261 300 8,400 3,300 Climbing Boston Center
06:12PM 42.4997 -74.0233 171° South  Level Estimated
06:12PM 42.9047 -74.0089 310° West 258 297 11,000  Level Boston Center
06:13PM 42.4373 -74.0783 180° South  Level Estimated
06:13PM 42.9611 -74.0992 310° West 287 330 14,400  Level Boston Center
06:14PM 42.3749 -74.1333 170° South  Level Estimated
06:14PM 42.9356 -74.1847 248° West 287 330 16,900  Level Boston Center
06:15PM 42.3404 -74.0440 118° Southeast  Level FlightAware Approximate
06:15PM 42.8556 -74.2108 193° South 302 348 19,800  Level Boston Center
06:16PM 42.7661 -74.1600 157° South 347 399 21,800 1,920 Climbing Boston Center
06:17PM 42.6719 -74.1064 157° South 361 415 23,800 1,920 Climbing Boston Center
06:18PM 42.5817 -74.0558 158° South 369 425 25,800 1,800 Climbing Boston Center
06:19PM 42.4872 -74.0017 157° South 370 426 27,400 1,620 Climbing Boston Center
06:20PM 42.3906 -73.9469 157° South 376 433 29,100 1,260 Climbing Boston Center
06:21PM 42.2911 -73.8922 158° South 384 442 30,000 420 Climbing Boston Center
06:22PM 42.1928 -73.8364 157° South 387 445 30,000  Level Boston Center
06:23PM 42.0936 -73.7800 157° South 388 447 30,000  Level Boston Center
06:25PM 41.9956 -73.7250 157° South 386 444 30,000  Level Boston Center
06:26PM 41.8550 -73.6472 158° South 391 450 30,000  Level Boston Center
06:27PM 41.7553 -73.5983 160° South 387 445 30,000  Level Boston Center
06:28PM 41.6594 -73.5964 179° South 355 409 30,000  Level Boston Center
06:29PM 41.5622 -73.5933 179° South 350 403 30,000  Level Boston Center
06:30PM 41.4758 -73.5906 179° South 351 404 30,000  Level Boston Center
06:31PM 41.3958 -73.6633 214° Southwest 290 334 30,000  Level Boston Center
06:32PM 41.3378 -73.7364 223° Southwest 287 330 30,000  Level Boston Center
06:33PM 41.2786 -73.8078 222° Southwest 288 331 30,000  Level Boston Center
06:34PM 41.2119 -73.8906 223° Southwest 290 334 30,000  Level New York Center
06:35PM 41.1539 -73.9650 224° Southwest 290 334 30,000  Level New York Center
06:36PM 41.0936 -74.0364 222° Southwest 295 339 30,000  Level New York Center
06:37PM 41.0353 -74.1106 224° Southwest 295 339 30,000  Level New York Center
06:38PM 40.9747 -74.1817 222° Southwest 295 339 30,000  Level New York Center
06:39PM 40.9189 -74.2419 219° Southwest 295 339 30,000 -240 Level New York Center
06:40PM 40.8583 -74.3186 224° Southwest 295 339 29,600 -960 Descending New York Center
06:41PM 40.8022 -74.3869 223° Southwest 295 339 28,100 -840 Descending New York Center
06:42PM 40.7539 -74.4611 229° Southwest 289 333 28,000 -60 Descending New York Center
06:43PM 40.7100 -74.5353 232° Southwest 278 320 28,000  Level New York Center
06:44PM 40.6639 -74.6094 231° Southwest 273 314 28,000 -360 Level New York Center
06:45PM 40.6297 -74.6922 241° Southwest 266 306 27,300 -1,200 Descending New York Center
06:46PM 40.6308 -74.7881 271° West 246 283 25,700 -1,620 Descending New York Center
06:47PM 40.6050 -74.8686 247° West 252 290 24,100 -1,620 Descending New York Center
06:48PM 40.5631 -74.9397 232° Southwest 247 284 22,500 -1,620 Descending New York Center
06:49PM 40.5231 -75.0056 231° Southwest 247 284 20,900 -1,260 Descending New York Center
06:50PM 40.4711 -75.0625 220° Southwest 247 284 20,000 -480 Descending New York Center
06:51PM 40.4208 -75.1219 222° Southwest 242 278 20,000  Level New York Center
06:52PM 40.3711 -75.1761 220° Southwest 242 278 20,000  Level New York Center
06:53PM 40.3189 -75.2325 219° Southwest 242 278 20,000  Level New York Center
06:54PM 40.2667 -75.2917 221° Southwest 247 284 20,000  Level New York Center
06:55PM 40.2142 -75.3508 221° Southwest 247 284 20,000  Level New York Center
06:56PM 40.1619 -75.4072 220° Southwest 247 284 20,000  Level New York Center
06:57PM 40.1097 -75.4636 220° Southwest 247 284 20,000  Level New York Center
06:58PM 40.0508 -75.5300 221° Southwest 252 290 20,000  Level New York Center
06:59PM 39.9983 -75.5889 221° Southwest 252 290 20,000  Level New York Center
07:00PM 39.9461 -75.6475 221° Southwest 252 290 20,000  Level New York Center
07:01PM 39.8975 -75.7089 224° Southwest 252 290 20,000  Level New York Center
07:02PM 39.8528 -75.7789 230° Southwest 252 290 20,000  Level New York Center
07:03PM 39.8125 -75.8461 232° Southwest 252 290 20,000  Level New York Center
07:04PM 39.7697 -75.9161 232° Southwest 252 290 20,000  Level New York Center
07:05PM 39.7250 -75.9856 230° Southwest 247 284 20,000 -600 Level New York Center
07:06PM 39.6825 -76.0528 231° Southwest 247 284 18,900 -1,200 Descending New York Center
07:07PM 39.6522 -76.1258 242° Southwest 239 275 17,600 -1,260 Descending New York Center
07:08PM 39.6400 -76.2086 259° West 229 264 16,400 -1,080 Descending New York Center
07:09PM 39.5978 -76.2619 224° Southwest 229 264 15,500 -1,200 Descending New York Center
07:10PM 39.5386 -76.3275 221° Southwest 250 288 14,100 -1,500 Descending New York Center
07:11PM 39.4667 -76.4167 224° Southwest 280 322 12,100 -960 Descending Potomac TRACON
07:12PM 39.4000 -76.4667 210° Southwest 283 326 12,000 -60 Descending Potomac TRACON
07:13PM 39.3333 -76.5333 218° Southwest 279 321 12,000 -60 Level Potomac TRACON
07:14PM 39.2667 -76.5833 210° Southwest 275 316 11,900 -840 Descending Potomac TRACON
07:15PM 39.2000 -76.6333 210° Southwest 267 307 10,500 -1,080 Descending Potomac TRACON
07:16PM 39.1500 -76.7000 226° Southwest 275 316 9,900 -240 Descending Potomac TRACON
07:17PM 39.0833 -76.7667 218° Southwest 257 296 10,000 -1,020 Climbing Potomac TRACON
07:18PM 39.0333 -76.8333 226° Southwest 248 285 7,800 -1,980 Descending Potomac TRACON
07:19PM 38.9833 -76.8833 218° Southwest 249 287 6,300 -900 Descending Potomac TRACON
07:20PM 38.9167 -76.9333 210° Southwest 240 276 6,000 -300 Descending Potomac TRACON
07:21PM 38.8667 -76.9500 195° South 205 236 5,800 -900 Descending Potomac TRACON
07:22PM 38.8000 -76.9500 180° South 202 232 4,300 -900 Descending Potomac TRACON
07:23PM 38.7500 -76.9500 180° South 206 237 4,000 -180 Descending Potomac TRACON
07:24PM 38.7000 -76.9333 165° South 206 237 4,000  Level Potomac TRACON
07:25PM 38.6500 -76.9333 180° South 209 241 4,100 -180 Climbing Potomac TRACON
07:26PM 38.6500 -76.9833 270° West 142 163 3,700 -540 Descending Potomac TRACON
07:27PM 38.6500 -77.0167 270° West 157 181 3,100 -540 Descending Potomac TRACON
07:28PM 38.7000 -77.0167 360° North 149 171 2,700 -480 Descending Potomac TRACON
07:29PM 38.7333 -77.0333 339° North 138 159 2,200 -600 Descending Potomac TRACON
07:30PM 38.7667 -77.0333 360° North 111 128 1,600 -660 Descending Potomac TRACON
07:31PM 38.8000 -77.0333 360° North 117 135 900 -660 Descending Potomac TRACON